createdAt,value
2023-08-05T00:00:38.082Z,22.52
2023-08-05T00:03:04.883Z,22.69
2023-08-05T00:05:31.775Z,22.46
2023-08-05T00:07:58.636Z,22.63
2023-08-05T00:10:25.394Z,22.72
2023-08-05T00:12:52.532Z,22.68
2023-08-05T00:15:19.304Z,22.72
2023-08-05T00:17:46.061Z,22.49
2023-08-05T00:20:13.670Z,22.65
2023-08-05T00:22:40.402Z,22.53
2023-08-05T00:25:07.469Z,22.81
2023-08-05T00:27:34.403Z,22.74
2023-08-05T00:30:01.065Z,22.80
2023-08-05T00:32:28.861Z,22.76
2023-08-05T00:34:55.760Z,22.78
2023-08-05T00:37:22.536Z,22.75
2023-08-05T00:39:49.137Z,22.61
2023-08-05T00:42:19.837Z,22.59
2023-08-05T00:44:46.900Z,22.67
2023-08-05T00:47:17.117Z,22.32
2023-08-05T00:49:44.085Z,22.42
2023-08-05T00:52:10.851Z,22.48
2023-08-05T00:54:37.462Z,22.52
2023-08-05T00:57:04.414Z,22.49
2023-08-05T00:59:31.103Z,22.25
2023-08-05T01:01:57.714Z,22.42
2023-08-05T01:04:28.038Z,22.32
2023-08-05T01:06:55.508Z,22.41
2023-08-05T01:09:26.106Z,22.34
2023-08-05T01:11:52.828Z,22.36
2023-08-05T01:14:19.605Z,22.36
2023-08-05T01:16:46.279Z,22.27
2023-08-05T01:19:23.427Z,22.26
2023-08-05T01:22:18.715Z,22.19
2023-08-05T01:24:54.567Z,22.23
2023-08-05T01:27:23.036Z,22.17
2023-08-05T01:29:49.784Z,22.07
2023-08-05T01:32:19.315Z,22.06
2023-08-05T01:34:46.954Z,22.04
2023-08-05T01:37:13.722Z,21.92
2023-08-05T01:39:40.638Z,22.04
2023-08-05T01:42:07.743Z,22.00
2023-08-05T01:44:34.616Z,22.04
2023-08-05T01:47:01.725Z,22.07
2023-08-05T01:49:28.483Z,22.02
2023-08-05T01:51:55.196Z,22.05
2023-08-05T01:54:22.024Z,22.21
2023-08-05T01:56:49.112Z,22.21
2023-08-05T01:59:15.936Z,22.23
2023-08-05T02:01:47.327Z,22.07
2023-08-05T02:04:15.063Z,22.27
2023-08-05T02:06:42.705Z,22.26
2023-08-05T02:09:09.628Z,22.24
2023-08-05T02:11:36.406Z,22.07
2023-08-05T02:14:04.019Z,22.18
2023-08-05T02:16:34.055Z,22.17
2023-08-05T02:19:01.176Z,22.13
2023-08-05T02:21:27.865Z,21.98
2023-08-05T02:23:56.180Z,22.04
2023-08-05T02:26:23.122Z,21.90
2023-08-05T02:28:50.064Z,21.94
2023-08-05T02:31:17.245Z,21.88
2023-08-05T02:33:43.904Z,21.73
2023-08-05T02:36:11.019Z,21.74
2023-08-05T02:38:37.896Z,21.53
2023-08-05T02:41:08.980Z,21.80
2023-08-05T02:43:35.765Z,21.71
2023-08-05T02:46:02.905Z,21.73
2023-08-05T02:48:29.631Z,21.65
2023-08-05T02:50:56.631Z,21.56
2023-08-05T02:53:23.536Z,21.50
2023-08-05T02:55:50.263Z,21.58
2023-08-05T02:58:17.283Z,21.51
2023-08-05T03:00:44.901Z,21.54
2023-08-05T03:03:12.266Z,21.57
2023-08-05T03:05:39.028Z,21.52
2023-08-05T03:08:06.190Z,21.48
2023-08-05T03:10:32.894Z,21.36
2023-08-05T03:12:59.709Z,21.36
2023-08-05T03:15:30.316Z,21.30
2023-08-05T03:17:57.450Z,21.33
2023-08-05T03:20:26.311Z,21.37
2023-08-05T03:22:56.543Z,21.34
2023-08-05T03:25:24.351Z,21.33
2023-08-05T03:27:51.473Z,21.30
2023-08-05T03:30:18.949Z,21.12
2023-08-05T03:32:47.932Z,21.31
2023-08-05T03:35:14.780Z,21.16
2023-08-05T03:37:41.516Z,21.25
2023-08-05T03:40:08.886Z,21.42
2023-08-05T03:42:35.623Z,21.45
2023-08-05T03:45:02.758Z,21.48
2023-08-05T03:47:29.760Z,21.58
2023-08-05T03:49:56.544Z,21.59
2023-08-05T03:52:25.333Z,21.61
2023-08-05T03:54:52.580Z,21.65
2023-08-05T03:57:19.180Z,21.74
2023-08-05T03:59:48.376Z,21.90
2023-08-05T04:02:15.807Z,21.89
2023-08-05T04:04:43.898Z,21.90
2023-08-05T04:07:10.906Z,22.02
2023-08-05T04:09:38.373Z,21.95
2023-08-05T04:12:06.660Z,22.08
2023-08-05T04:14:33.614Z,21.94
2023-08-05T04:17:01.717Z,22.10
2023-08-05T04:19:28.560Z,22.17
2023-08-05T04:21:55.952Z,22.19
2023-08-05T04:24:28.121Z,22.02
2023-08-05T04:26:54.747Z,22.17
2023-08-05T04:29:28.020Z,22.22
2023-08-05T04:31:54.800Z,22.13
2023-08-05T04:34:22.003Z,22.26
2023-08-05T04:36:53.644Z,22.28
2023-08-05T04:39:21.183Z,22.04
2023-08-05T04:41:48.469Z,22.24
2023-08-05T04:44:15.120Z,22.37
2023-08-05T04:46:41.821Z,22.37
2023-08-05T04:49:11.099Z,22.47
2023-08-05T04:51:38.010Z,22.50
2023-08-05T04:54:06.052Z,22.55
2023-08-05T04:56:34.802Z,22.57
2023-08-05T04:59:01.643Z,22.64
2023-08-05T05:01:28.795Z,22.67
2023-08-05T05:03:56.961Z,22.69
2023-08-05T05:06:25.206Z,22.61
2023-08-05T05:08:51.929Z,22.62
2023-08-05T05:11:18.606Z,22.74
2023-08-05T05:13:47.770Z,22.87
2023-08-05T05:16:14.461Z,22.81
2023-08-05T05:18:41.186Z,22.94
2023-08-05T05:21:07.940Z,23.06
2023-08-05T05:23:35.029Z,23.11
2023-08-05T05:26:01.911Z,23.21
2023-08-05T05:28:28.698Z,23.52
2023-08-05T05:30:55.467Z,23.49
2023-08-05T05:33:22.408Z,23.50
2023-08-05T05:35:51.225Z,23.85
2023-08-05T05:38:17.862Z,23.92
2023-08-05T05:40:44.546Z,23.98
2023-08-05T05:43:11.186Z,23.86
2023-08-05T05:45:38.127Z,24.10
2023-08-05T05:48:05.263Z,24.16
2023-08-05T05:50:32.015Z,24.23
2023-08-05T05:52:58.859Z,24.29
2023-08-05T05:55:25.854Z,24.31
2023-08-05T05:57:52.536Z,24.28
2023-08-05T06:00:19.332Z,24.41
2023-08-05T06:05:35.181Z,24.51
2023-08-05T06:08:02.073Z,24.66
2023-08-05T06:10:28.808Z,24.66
2023-08-05T06:12:56.666Z,24.86
2023-08-05T06:15:23.396Z,24.85
2023-08-05T06:17:50.958Z,24.87
2023-08-05T06:20:17.842Z,24.85
2023-08-05T06:22:45.146Z,24.96
2023-08-05T06:25:11.913Z,25.08
2023-08-05T06:27:39.176Z,25.32
2023-08-05T06:30:07.057Z,25.42
2023-08-05T06:32:33.861Z,25.61
2023-08-05T06:35:00.583Z,25.56
2023-08-05T06:37:27.715Z,25.92
2023-08-05T06:39:54.405Z,26.05
2023-08-05T06:42:24.737Z,26.13
2023-08-05T06:44:51.576Z,26.35
2023-08-05T06:47:18.245Z,26.67
2023-08-05T06:49:45.264Z,26.73
2023-08-05T06:52:12.231Z,27.09
2023-08-05T06:54:39.494Z,27.40
2023-08-05T06:57:06.683Z,27.62
2023-08-05T06:59:36.252Z,27.94
2023-08-05T07:02:03.244Z,28.15
2023-08-05T07:04:30.321Z,28.37
2023-08-05T07:06:59.907Z,28.46
2023-08-05T07:09:26.688Z,28.84
2023-08-05T07:11:55.642Z,29.03
2023-08-05T07:14:22.349Z,29.06
2023-08-05T07:16:49.022Z,29.24
2023-08-05T07:19:15.716Z,29.56
2023-08-05T07:21:42.468Z,29.45
2023-08-05T07:24:09.269Z,29.96
2023-08-05T07:26:36.077Z,30.11
2023-08-05T07:29:02.744Z,30.22
2023-08-05T07:31:29.481Z,30.56
2023-08-05T07:33:56.280Z,30.68
2023-08-05T07:36:23.903Z,30.75
2023-08-05T07:38:52.323Z,30.93
2023-08-05T07:41:21.423Z,31.01
2023-08-05T07:43:48.609Z,31.15
2023-08-05T07:46:15.630Z,31.34
2023-08-05T07:48:46.497Z,31.26
2023-08-05T07:51:13.943Z,31.65
2023-08-05T07:53:41.082Z,31.58
2023-08-05T07:56:14.203Z,31.85
2023-08-05T07:58:46.440Z,31.77
2023-08-05T08:01:14.960Z,31.57
2023-08-05T08:03:46.639Z,31.83
2023-08-05T08:06:17.349Z,31.98
2023-08-05T08:08:46.410Z,32.04
2023-08-05T08:11:13.506Z,32.04
2023-08-05T08:13:40.858Z,31.94
2023-08-05T08:16:08.472Z,31.97
2023-08-05T08:18:35.129Z,32.01
2023-08-05T08:21:01.889Z,32.09
2023-08-05T08:23:28.847Z,32.04
2023-08-05T08:25:59.062Z,32.28
2023-08-05T08:28:26.370Z,32.21
2023-08-05T08:30:59.551Z,32.56
2023-08-05T08:33:27.241Z,32.50
2023-08-05T08:35:54.148Z,32.62
2023-08-05T08:38:22.628Z,32.63
2023-08-05T08:40:51.067Z,32.60
2023-08-05T08:43:22.375Z,32.55
2023-08-05T08:45:53.299Z,32.44
2023-08-05T08:48:24.421Z,32.37
2023-08-05T08:50:54.304Z,32.23
2023-08-05T08:53:22.956Z,32.57
2023-08-05T08:55:50.066Z,32.53
2023-08-05T08:58:16.815Z,32.40
2023-08-05T09:00:43.621Z,32.36
2023-08-05T09:03:11.101Z,32.31
2023-08-05T09:05:50.702Z,32.45
2023-08-05T09:08:17.376Z,32.39
2023-08-05T09:10:47.892Z,32.68
2023-08-05T09:13:18.257Z,32.66
2023-08-05T09:15:45.215Z,32.69
2023-08-05T09:18:12.069Z,32.82
2023-08-05T09:20:39.759Z,32.86
2023-08-05T09:23:08.770Z,33.01
2023-08-05T09:25:40.478Z,33.21
2023-08-05T09:28:07.514Z,33.41
2023-08-05T09:30:34.792Z,33.51
2023-08-05T09:33:01.926Z,33.65
2023-08-05T09:35:28.722Z,33.61
2023-08-05T09:37:56.261Z,33.66
2023-08-05T09:40:24.181Z,33.72
2023-08-05T09:42:51.916Z,33.81
2023-08-05T09:45:20.866Z,33.93
2023-08-05T09:47:48.755Z,33.90
2023-08-05T09:50:19.237Z,33.86
2023-08-05T09:52:51.250Z,33.75
2023-08-05T09:55:20.264Z,33.90
2023-08-05T09:57:48.117Z,33.97
2023-08-05T10:00:16.125Z,34.06
2023-08-05T10:02:46.914Z,34.01
2023-08-05T10:05:14.206Z,34.10
2023-08-05T10:07:42.362Z,34.17
2023-08-05T10:10:21.163Z,34.12
2023-08-05T10:12:59.271Z,33.99
2023-08-05T10:15:38.906Z,34.00
2023-08-05T10:18:12.319Z,33.82
2023-08-05T10:20:39.887Z,33.55
2023-08-05T10:23:08.892Z,33.66
2023-08-05T10:26:02.293Z,33.85
2023-08-05T10:28:34.733Z,34.01
2023-08-05T10:31:07.748Z,34.14
2023-08-05T10:34:10.817Z,34.24
2023-08-05T10:36:46.200Z,34.28
2023-08-05T10:39:51.553Z,34.39
2023-08-05T10:42:20.157Z,34.37
2023-08-05T10:44:49.897Z,34.41
2023-08-05T10:47:21.973Z,34.30
2023-08-05T10:49:56.308Z,34.06
2023-08-05T10:52:25.073Z,33.93
2023-08-05T10:54:53.135Z,33.77
2023-08-05T10:57:34.955Z,33.71
2023-08-05T11:00:04.122Z,33.67
2023-08-05T11:02:32.425Z,33.55
2023-08-05T11:05:10.175Z,33.53
2023-08-05T11:07:46.370Z,33.53
2023-08-05T11:10:21.709Z,33.49
2023-08-05T11:12:48.477Z,33.73
2023-08-05T11:15:15.334Z,33.84
2023-08-05T11:17:56.243Z,33.82
2023-08-05T11:20:32.437Z,34.11
2023-08-05T11:22:59.261Z,34.18
2023-08-05T11:25:26.188Z,34.10
2023-08-05T11:27:57.079Z,34.16
2023-08-05T11:30:24.259Z,34.15
2023-08-05T11:32:57.145Z,34.17
2023-08-05T11:35:25.456Z,33.82
2023-08-05T11:37:52.560Z,33.95
2023-08-05T11:40:19.534Z,33.88
2023-08-05T11:42:46.925Z,34.20
2023-08-05T11:45:15.337Z,34.43
2023-08-05T11:47:43.318Z,34.41
2023-08-05T11:50:13.939Z,34.67
2023-08-05T11:53:23.165Z,34.61
2023-08-05T11:55:50.045Z,34.55
2023-08-05T11:58:16.935Z,34.59
2023-08-05T12:00:45.738Z,34.48
2023-08-05T12:03:12.774Z,34.11
2023-08-05T12:05:39.656Z,34.04
2023-08-05T12:08:06.412Z,34.01
2023-08-05T12:10:33.435Z,33.67
2023-08-05T12:13:04.987Z,33.72
2023-08-05T12:15:32.246Z,33.68
2023-08-05T12:18:08.045Z,33.41
2023-08-05T12:20:37.628Z,33.72
2023-08-05T12:23:06.801Z,33.66
2023-08-05T12:25:34.219Z,33.92
2023-08-05T12:28:05.939Z,33.98
2023-08-05T12:30:34.064Z,33.94
2023-08-05T12:33:01.332Z,34.17
2023-08-05T12:35:28.259Z,34.22
2023-08-05T12:37:55.170Z,34.24
2023-08-05T12:40:21.905Z,34.12
2023-08-05T12:42:48.790Z,33.79
2023-08-05T12:45:15.586Z,33.94
2023-08-05T12:47:42.447Z,33.75
2023-08-05T12:50:09.889Z,33.60
2023-08-05T12:52:36.957Z,33.59
2023-08-05T12:55:04.443Z,33.70
2023-08-05T12:57:33.393Z,33.54
2023-08-05T13:00:00.825Z,33.45
2023-08-05T13:02:27.798Z,33.41
2023-08-05T13:04:54.705Z,33.29
2023-08-05T13:07:21.638Z,33.38
2023-08-05T13:09:48.521Z,33.34
2023-08-05T13:12:15.971Z,33.32
2023-08-05T13:14:44.464Z,33.10
2023-08-05T13:17:11.514Z,33.14
2023-08-05T13:19:39.010Z,33.22
2023-08-05T13:22:06.087Z,33.14
2023-08-05T13:24:34.756Z,33.34
2023-08-05T13:27:05.471Z,33.37
2023-08-05T13:29:32.181Z,33.31
2023-08-05T13:31:59.748Z,33.23
2023-08-05T13:34:26.418Z,32.97
2023-08-05T13:36:53.257Z,32.90
2023-08-05T13:39:20.062Z,33.14
2023-08-05T13:41:46.796Z,32.83
2023-08-05T13:44:13.691Z,32.75
2023-08-05T13:46:40.449Z,32.78
2023-08-05T13:49:07.615Z,32.74
2023-08-05T13:51:35.211Z,32.86
2023-08-05T13:54:02.272Z,33.09
2023-08-05T13:56:28.956Z,33.14
2023-08-05T13:58:55.903Z,32.92
2023-08-05T14:01:22.912Z,32.86
2023-08-05T14:03:49.823Z,32.61
2023-08-05T14:06:16.676Z,32.58
2023-08-05T14:08:49.214Z,32.43
2023-08-05T14:11:16.944Z,32.67
2023-08-05T14:13:46.539Z,32.40
2023-08-05T14:16:13.315Z,32.44
2023-08-05T14:18:40.078Z,32.33
2023-08-05T14:21:07.581Z,32.18
2023-08-05T14:23:34.363Z,32.08
2023-08-05T14:26:01.371Z,31.97
2023-08-05T14:28:28.642Z,32.03
2023-08-05T14:30:55.424Z,32.14
2023-08-05T14:33:22.314Z,32.27
2023-08-05T14:35:49.059Z,32.26
2023-08-05T14:38:15.708Z,32.12
2023-08-05T14:40:42.587Z,32.41
2023-08-05T14:43:09.559Z,32.33
2023-08-05T14:45:40.469Z,32.20
2023-08-05T14:48:07.644Z,32.26
2023-08-05T14:50:39.296Z,32.32
2023-08-05T14:53:06.743Z,32.33
2023-08-05T14:55:33.590Z,32.18
2023-08-05T14:58:00.495Z,32.37
2023-08-05T15:00:28.008Z,32.24
2023-08-05T15:02:55.552Z,32.42
2023-08-05T15:05:22.791Z,32.27
2023-08-05T15:07:49.601Z,32.18
2023-08-05T15:10:16.477Z,32.19
2023-08-05T15:12:43.286Z,32.30
2023-08-05T15:15:10.354Z,32.20
2023-08-05T15:17:37.081Z,31.83
2023-08-05T15:20:04.363Z,31.82
2023-08-05T15:22:31.008Z,31.78
2023-08-05T15:24:58.936Z,31.70
2023-08-05T15:27:25.839Z,31.50
2023-08-05T15:29:59.216Z,31.58
2023-08-05T15:32:26.914Z,31.37
2023-08-05T15:34:54.157Z,31.46
2023-08-05T15:37:20.944Z,31.27
2023-08-05T15:39:47.612Z,31.23
2023-08-05T15:42:14.422Z,31.40
2023-08-05T15:44:41.129Z,31.13
2023-08-05T15:47:07.861Z,31.28
2023-08-05T15:49:34.700Z,31.18
2023-08-05T15:52:01.527Z,31.16
2023-08-05T15:54:28.203Z,31.00
2023-08-05T15:56:54.933Z,30.99
2023-08-05T15:59:21.553Z,30.91
2023-08-05T16:01:48.232Z,30.55
2023-08-05T16:04:15.290Z,30.46
2023-08-05T16:06:44.301Z,30.65
2023-08-05T16:09:11.420Z,30.51
2023-08-05T16:11:38.373Z,30.64
2023-08-05T16:14:05.092Z,30.33
2023-08-05T16:16:31.922Z,30.41
2023-08-05T16:18:58.755Z,30.25
2023-08-05T16:21:26.108Z,30.43
2023-08-05T16:23:58.757Z,30.41
2023-08-05T16:26:27.081Z,30.30
2023-08-05T16:28:54.422Z,30.20
2023-08-05T16:31:23.712Z,30.01
2023-08-05T16:33:50.684Z,30.14
2023-08-05T16:36:17.542Z,29.92
2023-08-05T16:38:46.751Z,30.04
2023-08-05T16:41:13.735Z,29.71
2023-08-05T16:43:44.671Z,29.80
2023-08-05T16:46:11.719Z,29.87
2023-08-05T16:48:38.530Z,29.82
2023-08-05T16:51:06.133Z,29.71
2023-08-05T16:53:34.391Z,29.72
2023-08-05T16:56:05.417Z,29.64
2023-08-05T16:58:32.460Z,29.55
2023-08-05T17:00:59.250Z,29.50
2023-08-05T17:03:26.389Z,29.51
2023-08-05T17:05:53.591Z,29.38
2023-08-05T17:08:20.937Z,29.30
2023-08-05T17:10:47.662Z,29.11
2023-08-05T17:13:14.278Z,29.08
2023-08-05T17:15:45.362Z,29.16
2023-08-05T17:18:13.481Z,29.11
2023-08-05T17:20:40.362Z,29.02
2023-08-05T17:23:07.009Z,28.64
2023-08-05T17:25:38.198Z,28.85
2023-08-05T17:28:04.929Z,28.71
2023-08-05T17:30:33.501Z,28.70
2023-08-05T17:33:00.347Z,28.58
2023-08-05T17:35:29.924Z,28.45
2023-08-05T17:37:56.794Z,28.47
2023-08-05T17:40:23.798Z,28.26
2023-08-05T17:42:50.493Z,28.35
2023-08-05T17:45:18.928Z,28.22
2023-08-05T17:47:46.437Z,28.04
2023-08-05T17:50:13.519Z,28.17
2023-08-05T17:52:40.502Z,28.18
2023-08-05T17:55:07.762Z,28.12
2023-08-05T17:57:34.433Z,27.96
2023-08-05T18:00:01.318Z,28.01
2023-08-05T18:02:28.200Z,27.87
2023-08-05T18:04:55.015Z,28.00
2023-08-05T18:07:21.705Z,27.82
2023-08-05T18:09:48.533Z,27.78
2023-08-05T18:12:15.371Z,27.83
2023-08-05T18:14:46.275Z,27.66
2023-08-05T18:17:12.943Z,27.39
2023-08-05T18:19:39.614Z,27.62
2023-08-05T18:22:07.231Z,27.50
2023-08-05T18:24:34.067Z,27.59
2023-08-05T18:27:00.838Z,27.45
2023-08-05T18:29:27.498Z,27.52
2023-08-05T18:31:54.643Z,27.43
2023-08-05T18:34:22.647Z,27.42
2023-08-05T18:36:51.284Z,27.29
2023-08-05T18:39:18.216Z,27.33
2023-08-05T18:41:49.024Z,27.29
2023-08-05T18:44:16.522Z,27.04
2023-08-05T18:46:43.489Z,27.17
2023-08-05T18:49:10.151Z,26.88
2023-08-05T18:51:37.225Z,26.82
2023-08-05T18:54:04.473Z,26.98
2023-08-05T18:56:31.285Z,27.01
2023-08-05T18:58:58.079Z,26.83
2023-08-05T19:01:24.967Z,26.70
2023-08-05T19:03:51.806Z,26.75
2023-08-05T19:06:18.676Z,26.61
2023-08-05T19:08:50.972Z,26.75
2023-08-05T19:11:31.717Z,26.89
2023-08-05T19:14:12.511Z,26.82
2023-08-05T19:16:41.289Z,26.44
2023-08-05T19:19:13.636Z,26.62
2023-08-05T19:21:40.477Z,26.73
2023-08-05T19:24:07.598Z,26.61
2023-08-05T19:26:40.428Z,26.61
2023-08-05T19:29:07.824Z,26.57
2023-08-05T19:31:35.848Z,26.38
2023-08-05T19:34:02.684Z,26.18
2023-08-05T19:36:29.311Z,26.16
2023-08-05T19:38:56.125Z,26.37
2023-08-05T19:41:23.303Z,26.24
2023-08-05T19:43:50.003Z,26.26
2023-08-05T19:46:16.794Z,25.95
2023-08-05T19:48:46.856Z,25.98
2023-08-05T19:51:15.066Z,25.78
2023-08-05T19:53:46.645Z,26.01
2023-08-05T19:56:14.190Z,26.02
2023-08-05T19:58:49.544Z,25.80
2023-08-05T20:01:16.852Z,25.98
2023-08-05T20:03:43.764Z,25.70
2023-08-05T20:06:13.440Z,25.91
2023-08-05T20:08:44.552Z,25.87
2023-08-05T20:11:12.684Z,25.48
2023-08-05T20:13:39.515Z,25.75
2023-08-05T20:16:06.402Z,25.81
2023-08-05T20:21:17.139Z,25.72
2023-08-05T20:23:46.781Z,25.63
2023-08-05T20:26:15.068Z,25.45
2023-08-05T20:28:46.753Z,25.25
2023-08-05T20:31:21.216Z,25.41
2023-08-05T20:33:48.373Z,25.46
2023-08-05T20:36:15.276Z,25.37
2023-08-05T20:38:42.355Z,25.29
2023-08-05T20:41:09.752Z,25.42
2023-08-05T20:43:36.763Z,25.42
2023-08-05T20:46:03.729Z,25.42
2023-08-05T20:48:30.692Z,25.41
2023-08-05T20:50:58.447Z,25.22
2023-08-05T20:53:25.163Z,25.42
2023-08-05T20:55:52.073Z,25.27
2023-08-05T20:58:18.820Z,25.39
2023-08-05T21:01:00.933Z,25.17
2023-08-05T21:03:28.236Z,25.04
2023-08-05T21:06:02.196Z,25.12
2023-08-05T21:08:31.772Z,24.95
2023-08-05T21:11:09.784Z,25.24
2023-08-05T21:13:40.557Z,25.20
2023-08-05T21:16:08.560Z,25.16
2023-08-05T21:18:35.686Z,25.14
2023-08-05T21:21:02.745Z,25.10
2023-08-05T21:23:29.567Z,25.08
2023-08-05T21:25:56.814Z,24.82
2023-08-05T21:28:23.572Z,24.81
2023-08-05T21:30:51.745Z,25.02
2023-08-05T21:33:18.609Z,24.99
2023-08-05T21:35:45.239Z,24.97
2023-08-05T21:38:11.938Z,24.81
2023-08-05T21:40:46.676Z,24.89
2023-08-05T21:43:14.666Z,24.86
2023-08-05T21:45:55.361Z,24.79
2023-08-05T21:48:22.680Z,24.80
2023-08-05T21:50:50.240Z,24.77
2023-08-05T21:53:17.405Z,24.68
2023-08-05T21:55:45.781Z,24.70
2023-08-05T21:58:12.863Z,24.73
2023-08-05T22:00:40.089Z,24.62
2023-08-05T22:03:07.064Z,24.58
2023-08-05T22:05:34.073Z,24.62
2023-08-05T22:08:01.023Z,24.55
2023-08-05T22:10:27.670Z,24.49
2023-08-05T22:12:54.706Z,24.43
2023-08-05T22:15:21.641Z,24.30
2023-08-05T22:17:48.954Z,24.25
2023-08-05T22:20:16.690Z,24.25
2023-08-05T22:22:43.570Z,24.20
2023-08-05T22:25:10.537Z,24.16
2023-08-05T22:27:37.664Z,23.88
2023-08-05T22:30:08.432Z,24.07
2023-08-05T22:32:35.879Z,23.88
2023-08-05T22:35:03.424Z,23.80
2023-08-05T22:37:30.627Z,23.84
2023-08-05T22:40:02.098Z,23.92
2023-08-05T22:42:28.908Z,23.84
2023-08-05T22:44:55.803Z,23.90
2023-08-05T22:47:22.781Z,23.86
2023-08-05T22:49:49.541Z,23.90
2023-08-05T22:52:16.242Z,23.90
2023-08-05T22:54:43.000Z,23.79
2023-08-05T22:57:09.761Z,23.70
2023-08-05T22:59:36.450Z,23.82
2023-08-05T23:02:03.246Z,23.70
2023-08-05T23:04:29.917Z,23.73
2023-08-05T23:06:56.916Z,23.63
2023-08-05T23:09:23.815Z,23.62
2023-08-05T23:11:52.497Z,23.54
2023-08-05T23:14:19.940Z,23.43
2023-08-05T23:16:46.682Z,23.44
2023-08-05T23:19:14.113Z,23.36
2023-08-05T23:21:43.951Z,23.38
2023-08-05T23:24:12.027Z,23.41
2023-08-05T23:26:39.558Z,23.48
2023-08-05T23:29:06.701Z,23.43
2023-08-05T23:31:34.361Z,23.57
2023-08-05T23:34:01.334Z,23.48
2023-08-05T23:36:28.744Z,23.63
2023-08-05T23:38:55.676Z,23.73
2023-08-05T23:41:22.726Z,23.70
2023-08-05T23:43:49.648Z,23.75
2023-08-05T23:46:16.391Z,23.74
2023-08-05T23:48:43.252Z,23.50
2023-08-05T23:51:10.070Z,23.50
2023-08-05T23:53:36.820Z,23.24
2023-08-05T23:56:03.883Z,23.44
2023-08-05T23:58:30.797Z,23.39
